Kastav — 9AA6417 — position and weather

sailwx.info

Track history (hours):
 
Tides and Currents Weather Stations Pressure Air Temp Water Temp Dewpoint Dewpoint Depression Visibility Wind Speed Wind Dir Waves Ship Positions

Kastav

Last reported at 2017-Mar-12 23:10 UTC. Time now 2017-Mar-23 12:32 UTC.
Position N 25°44' W 079°29'.
Warning: this ship's position is 10 days out of date.

Length 195 m; draft 10.5 m.

Type: Ship (hazmat cat A). MMSI: 238257000.

Date/timePositionNaut miles runAvg speedWind from/ knotsBaromVisibWave heightAir tempDewpointWater temp
2017-Mar-12 23:10N 25°44' W 079°29'  
2017-Mar-09 13:33N 29°47' W 093°21'9 9.2
2017-Mar-09 12:33N 29°56' W 093°20'6 6.3
2017-Mar-09 11:33N 30°02' W 093°20'6 6.2
2017-Mar-09 10:33N 30°09' W 093°20'4 4.3
2017-Mar-09 09:33N 30°12' W 093°17'2 2.3
2017-Mar-09 08:33N 30°14' W 093°15'0 0.0
2017-Mar-09 07:33N 30°14' W 093°15'0 0.0
2017-Mar-09 06:33N 30°14' W 093°15'0 0.0
2017-Mar-09 01:15N 30°14' W 093°15'0 0.0
2017-Mar-09 00:21N 30°14' W 093°15'0 0.0
2017-Mar-08 18:27N 30°14' W 093°15'0 0.0
2017-Mar-08 17:33N 30°14' W 093°15'0 0.0
2017-Mar-08 16:30N 30°14' W 093°15'0 0.0
2017-Mar-08 15:30N 30°14' W 093°15'0 0.0
2017-Mar-08 14:33N 30°14' W 093°15'0 0.0
2017-Mar-08 13:33N 30°14' W 093°15'0 0.0
2017-Mar-08 12:27N 30°14' W 093°15'0 0.0
2017-Mar-08 11:33N 30°14' W 093°15'0 0.0
2017-Mar-08 10:30N 30°14' W 093°15'0 0.0
2017-Mar-08 09:33N 30°14' W 093°15'0 0.0
2017-Mar-08 08:33N 30°14' W 093°15'0 0.0
2017-Mar-08 07:33N 30°14' W 093°15'0 0.0
2017-Mar-08 06:33N 30°14' W 093°15'0 0.0
2017-Mar-08 05:30N 30°14' W 093°15'0 0.0
2017-Mar-08 04:30N 30°14' W 093°15'0 0.0
2017-Mar-08 03:30N 30°14' W 093°15'0 0.0
2017-Mar-08 02:33N 30°14' W 093°15'0 0.0
2017-Mar-08 01:33N 30°14' W 093°15'0 0.0
2017-Mar-08 00:27N 30°14' W 093°15'0 0.0
2017-Mar-07 23:30N 30°14' W 093°15'0 0.0
2017-Mar-07 22:33N 30°14' W 093°15'0 0.0
2017-Mar-07 21:33N 30°14' W 093°15'0 0.0
2017-Mar-07 20:33N 30°14' W 093°15'0 0.0
2017-Mar-07 19:33N 30°14' W 093°15'0 0.0
2017-Mar-07 18:33N 30°14' W 093°15'0 0.0
2017-Mar-07 17:33N 30°14' W 093°15'0 0.0
2017-Mar-07 16:33N 30°14' W 093°15'0 0.0
2017-Mar-07 15:33N 30°14' W 093°15'0 0.0
2017-Mar-07 14:33N 30°14' W 093°15'0 0.0
2017-Mar-07 13:27N 30°14' W 093°15'0 0.0
2017-Mar-07 12:33N 30°14' W 093°15'0 0.0
2017-Mar-07 11:30N 30°14' W 093°15'0 0.0
2017-Mar-07 10:30N 30°14' W 093°15'0 0.0
2017-Mar-07 09:33N 30°14' W 093°15'0 0.0
2017-Mar-07 08:30N 30°14' W 093°15'0 0.0
2017-Mar-07 07:33N 30°14' W 093°15'0 0.0
2017-Mar-07 06:33N 30°14' W 093°15'0 0.0
2017-Mar-07 05:27N 30°14' W 093°15'0 0.0
2017-Mar-07 04:30N 30°14' W 093°15'0 0.0
2017-Mar-07 03:33N 30°14' W 093°15'0 0.0
2017-Mar-07 02:33N 30°14' W 093°15'0 0.0
2017-Mar-07 01:33N 30°14' W 093°15'0 0.0
2017-Mar-07 00:27N 30°14' W 093°15'0 0.0
2017-Mar-06 23:30N 30°14' W 093°15'0 0.0
2017-Mar-06 22:33N 30°14' W 093°15'0 0.0
2017-Mar-06 21:33N 30°14' W 093°15'0 0.0
2017-Mar-06 20:33N 30°14' W 093°15'0 0.0
2017-Mar-06 19:33N 30°14' W 093°15'0 0.0
2017-Mar-06 18:33N 30°14' W 093°15'0 0.0
2017-Mar-06 17:33N 30°14' W 093°15'0 0.0
2017-Mar-06 16:30N 30°14' W 093°15'0 0.0
2017-Mar-06 15:33N 30°14' W 093°15'0 0.0
2017-Mar-06 14:33N 30°14' W 093°15'0 0.0
2017-Mar-06 13:33N 30°14' W 093°15'0 0.0
2017-Mar-06 12:30N 30°14' W 093°15'0 0.0
2017-Mar-06 11:33N 30°14' W 093°15'0 0.0
2017-Mar-06 10:30N 30°14' W 093°15'0 0.0
2017-Mar-06 09:33N 30°14' W 093°15'0 0.0
2017-Mar-06 08:30N 30°14' W 093°15'0 0.0
2017-Mar-06 07:33N 30°14' W 093°15'0 0.0
2017-Mar-06 06:33N 30°14' W 093°15'0 0.0
2017-Mar-06 05:24N 30°14' W 093°15'0 0.0
2017-Mar-06 04:33N 30°14' W 093°15'0 0.0
2017-Mar-06 03:30N 30°14' W 093°15'0 0.0
2017-Mar-06 02:33N 30°14' W 093°15'0 0.0
2017-Mar-06 01:27N 30°14' W 093°15'0 0.0
2017-Mar-06 00:33N 30°14' W 093°15'0 0.0
2017-Mar-05 23:33N 30°14' W 093°15'0 0.0
2017-Mar-05 22:31N 30°14' W 093°15'0 0.0
2017-Mar-05 21:31N 30°14' W 093°15'0 0.0
2017-Mar-05 20:25N 30°14' W 093°15'0 0.0
2017-Mar-05 19:31N 30°14' W 093°15'0 0.0
2017-Mar-05 18:31N 30°14' W 093°15'0 0.0
2017-Mar-05 17:31N 30°14' W 093°15'0 0.0
2017-Mar-05 16:31N 30°14' W 093°15'0 0.0
2017-Mar-05 15:31N 30°14' W 093°15'0 0.0
2017-Mar-05 14:31N 30°14' W 093°15'0 0.0
2017-Mar-05 13:31N 30°14' W 093°15'0 0.0
2017-Mar-05 12:33N 30°14' W 093°15'3 3.0
2017-Mar-05 11:33N 30°12' W 093°18'4 3.5
2017-Mar-05 10:33N 30°09' W 093°20'6 6.3
2017-Mar-05 09:33N 30°02' W 093°20'6 6.3
2017-Mar-05 08:33N 29°56' W 093°20'8 8.1
2017-Mar-05 07:33N 29°48' W 093°21'11 0.5
2017-Mar-04 11:28N 29°37' W 093°17'0 0.0
2017-Mar-04 10:28N 29°37' W 093°17'0 0.0
2017-Mar-03 13:25N 29°37' W 093°17'0 0.0
2017-Mar-03 04:13N 29°37' W 093°17'1 2.1
2017-Mar-03 03:32N 29°36' W 093°17'  
Track history (hours):
 
Tides and Currents Weather Stations Pressure Air Temp Water Temp Dewpoint Dewpoint Depression Visibility Wind Speed Wind Dir Waves Ship Positions

Kastav

Last reported at 2017-Mar-12 23:10 UTC. Time now 2017-Mar-23 12:32 UTC.
Position N 25°44' W 079°29'.
Warning: this ship's position is 10 days out of date.

Length 195 m; draft 10.5 m.

Type: Ship (hazmat cat A). MMSI: 238257000.

Date/timePositionNaut miles runAvg speedWind from/ knotsBaromVisibWave heightAir tempDewpointWater temp
2017-Mar-12 23:10N 25°44' W 079°29'  
2017-Mar-09 13:33N 29°47' W 093°21'9 9.2
2017-Mar-09 12:33N 29°56' W 093°20'6 6.3
2017-Mar-09 11:33N 30°02' W 093°20'6 6.2
2017-Mar-09 10:33N 30°09' W 093°20'4 4.3
2017-Mar-09 09:33N 30°12' W 093°17'2 2.3
2017-Mar-09 08:33N 30°14' W 093°15'0 0.0
2017-Mar-09 07:33N 30°14' W 093°15'0 0.0
2017-Mar-09 06:33N 30°14' W 093°15'0 0.0
2017-Mar-09 01:15N 30°14' W 093°15'0 0.0
2017-Mar-09 00:21N 30°14' W 093°15'0 0.0
2017-Mar-08 18:27N 30°14' W 093°15'0 0.0
2017-Mar-08 17:33N 30°14' W 093°15'0 0.0
2017-Mar-08 16:30N 30°14' W 093°15'0 0.0
2017-Mar-08 15:30N 30°14' W 093°15'0 0.0
2017-Mar-08 14:33N 30°14' W 093°15'0 0.0
2017-Mar-08 13:33N 30°14' W 093°15'0 0.0
2017-Mar-08 12:27N 30°14' W 093°15'0 0.0
2017-Mar-08 11:33N 30°14' W 093°15'0 0.0
2017-Mar-08 10:30N 30°14' W 093°15'0 0.0
2017-Mar-08 09:33N 30°14' W 093°15'0 0.0
2017-Mar-08 08:33N 30°14' W 093°15'0 0.0
2017-Mar-08 07:33N 30°14' W 093°15'0 0.0
2017-Mar-08 06:33N 30°14' W 093°15'0 0.0
2017-Mar-08 05:30N 30°14' W 093°15'0 0.0
2017-Mar-08 04:30N 30°14' W 093°15'0 0.0
2017-Mar-08 03:30N 30°14' W 093°15'0 0.0
2017-Mar-08 02:33N 30°14' W 093°15'0 0.0
2017-Mar-08 01:33N 30°14' W 093°15'0 0.0
2017-Mar-08 00:27N 30°14' W 093°15'0 0.0
2017-Mar-07 23:30N 30°14' W 093°15'0 0.0
2017-Mar-07 22:33N 30°14' W 093°15'0 0.0
2017-Mar-07 21:33N 30°14' W 093°15'0 0.0
2017-Mar-07 20:33N 30°14' W 093°15'0 0.0
2017-Mar-07 19:33N 30°14' W 093°15'0 0.0
2017-Mar-07 18:33N 30°14' W 093°15'0 0.0
2017-Mar-07 17:33N 30°14' W 093°15'0 0.0
2017-Mar-07 16:33N 30°14' W 093°15'0 0.0
2017-Mar-07 15:33N 30°14' W 093°15'0 0.0
2017-Mar-07 14:33N 30°14' W 093°15'0 0.0
2017-Mar-07 13:27N 30°14' W 093°15'0 0.0
2017-Mar-07 12:33N 30°14' W 093°15'0 0.0
2017-Mar-07 11:30N 30°14' W 093°15'0 0.0
2017-Mar-07 10:30N 30°14' W 093°15'0 0.0
2017-Mar-07 09:33N 30°14' W 093°15'0 0.0
2017-Mar-07 08:30N 30°14' W 093°15'0 0.0
2017-Mar-07 07:33N 30°14' W 093°15'0 0.0
2017-Mar-07 06:33N 30°14' W 093°15'0 0.0
2017-Mar-07 05:27N 30°14' W 093°15'0 0.0
2017-Mar-07 04:30N 30°14' W 093°15'0 0.0
2017-Mar-07 03:33N 30°14' W 093°15'0 0.0
2017-Mar-07 02:33N 30°14' W 093°15'0 0.0
2017-Mar-07 01:33N 30°14' W 093°15'0 0.0
2017-Mar-07 00:27N 30°14' W 093°15'0 0.0
2017-Mar-06 23:30N 30°14' W 093°15'0 0.0
2017-Mar-06 22:33N 30°14' W 093°15'0 0.0
2017-Mar-06 21:33N 30°14' W 093°15'0 0.0
2017-Mar-06 20:33N 30°14' W 093°15'0 0.0
2017-Mar-06 19:33N 30°14' W 093°15'0 0.0
2017-Mar-06 18:33N 30°14' W 093°15'0 0.0
2017-Mar-06 17:33N 30°14' W 093°15'0 0.0
2017-Mar-06 16:30N 30°14' W 093°15'0 0.0
2017-Mar-06 15:33N 30°14' W 093°15'0 0.0
2017-Mar-06 14:33N 30°14' W 093°15'0 0.0
2017-Mar-06 13:33N 30°14' W 093°15'0 0.0
2017-Mar-06 12:30N 30°14' W 093°15'0 0.0
2017-Mar-06 11:33N 30°14' W 093°15'0 0.0
2017-Mar-06 10:30N 30°14' W 093°15'0 0.0
2017-Mar-06 09:33N 30°14' W 093°15'0 0.0
2017-Mar-06 08:30N 30°14' W 093°15'0 0.0
2017-Mar-06 07:33N 30°14' W 093°15'0 0.0
2017-Mar-06 06:33N 30°14' W 093°15'0 0.0
2017-Mar-06 05:24N 30°14' W 093°15'0 0.0
2017-Mar-06 04:33N 30°14' W 093°15'0 0.0
2017-Mar-06 03:30N 30°14' W 093°15'0 0.0
2017-Mar-06 02:33N 30°14' W 093°15'0 0.0
2017-Mar-06 01:27N 30°14' W 093°15'0 0.0
2017-Mar-06 00:33N 30°14' W 093°15'0 0.0
2017-Mar-05 23:33N 30°14' W 093°15'0 0.0
2017-Mar-05 22:31N 30°14' W 093°15'0 0.0
2017-Mar-05 21:31N 30°14' W 093°15'0 0.0
2017-Mar-05 20:25N 30°14' W 093°15'0 0.0
2017-Mar-05 19:31N 30°14' W 093°15'0 0.0
2017-Mar-05 18:31N 30°14' W 093°15'0 0.0
2017-Mar-05 17:31N 30°14' W 093°15'0 0.0
2017-Mar-05 16:31N 30°14' W 093°15'0 0.0
2017-Mar-05 15:31N 30°14' W 093°15'0 0.0
2017-Mar-05 14:31N 30°14' W 093°15'0 0.0
2017-Mar-05 13:31N 30°14' W 093°15'0 0.0
2017-Mar-05 12:33N 30°14' W 093°15'3 3.0
2017-Mar-05 11:33N 30°12' W 093°18'4 3.5
2017-Mar-05 10:33N 30°09' W 093°20'6 6.3
2017-Mar-05 09:33N 30°02' W 093°20'6 6.3
2017-Mar-05 08:33N 29°56' W 093°20'8 8.1
2017-Mar-05 07:33N 29°48' W 093°21'11 0.5
2017-Mar-04 11:28N 29°37' W 093°17'0 0.0
2017-Mar-04 10:28N 29°37' W 093°17'0 0.0
2017-Mar-03 13:25N 29°37' W 093°17'0 0.0
2017-Mar-03 04:13N 29°37' W 093°17'1 2.1
2017-Mar-03 03:32N 29°36' W 093°17'  

Dump ship's entire track history